Time;durP1;ratioP1;P1;durP2;ratioP2;P2;SDS_P1;SDS_P2;PMS_P1;PMS_P2;Temp;Humidity;BMP_temperature;BMP_pressure;BME280_temperature;BME280_humidity;BME280_pressure;Samples;Min_cycle;Max_cycle;Signal;HPM_P1;HPM_P2
2021/12/01 00:08:37;;;;;;;3.6;6.5;;;;;;;3.7;73.1;97110;;;;
2021/12/01 00:18:37;;;;;;;3.6;6.5;;;;;;;3.6;72.4;97120;;;;
2021/12/01 00:29:37;;;;;;;5.1;8.1;;;;;;;3.4;74.7;97160;;;;
2021/12/01 00:39:37;;;;;;;5.1;8.1;;;;;;;3.2;75.9;97170;;;;
2021/12/01 00:49:37;;;;;;;5.1;8.1;;;;;;;3.2;75.2;97180;;;;
2021/12/01 00:59:37;;;;;;;5.1;9.7;;;;;;;3.3;74.6;97200;;;;
2021/12/01 01:16:22;;;;;;;5.1;9.7;;;;;;;3.4;73.2;97220;;;;
2021/12/01 01:20:37;;;;;;;5.1;9.7;;;;;;;3.6;71.5;97230;;;;
2021/12/01 01:30:37;;;;;;;4.7;9;;;;;;;3.6;70.3;97240;;;;
2021/12/01 01:41:37;;;;;;;4.7;9;;;;;;;3.7;69.6;97260;;;;
2021/12/01 01:51:37;;;;;;;4.7;9;;;;;;;3.6;70.5;97290;;;;
2021/12/01 02:01:46;;;;;;;3.9;7.5;;;;;;;3.6;69.4;97300;;;;
2021/12/01 02:12:37;;;;;;;3.9;7.5;;;;;;;3.6;69.3;97320;;;;
2021/12/01 02:23:37;;;;;;;3.7;7.7;;;;;;;3.5;70.6;97330;;;;
2021/12/01 02:34:38;;;;;;;3.7;7.7;;;;;;;3.4;71.7;97360;;;;
2021/12/01 02:45:39;;;;;;;3.7;7.7;;;;;;;3.2;73.4;97370;;;;
2021/12/01 02:56:37;;;;;;;3.9;7.5;;;;;;;3.1;73.1;97400;;;;
2021/12/01 03:07:37;;;;;;;3.9;7.5;;;;;;;3.4;70.3;97410;;;;
2021/12/01 03:17:37;;;;;;;3.9;7.5;;;;;;;3.5;69.8;97440;;;;
2021/12/01 03:28:37;;;;;;;3.5;8;;;;;;;3.4;69.4;97470;;;;
2021/12/01 03:39:37;;;;;;;3.5;8;;;;;;;3.3;70.6;97490;;;;
2021/12/01 03:49:37;;;;;;;3.5;8;;;;;;;3.2;71.1;97510;;;;
2021/12/01 04:00:37;;;;;;;3.2;6.4;;;;;;;3.2;70.7;97530;;;;
2021/12/01 04:10:37;;;;;;;3.2;6.4;;;;;;;3.2;71.1;97540;;;;
2021/12/01 04:21:37;;;;;;;3.2;6;;;;;;;3.1;72.1;97550;;;;
2021/12/01 04:31:37;;;;;;;3.2;6;;;;;;;3;72.6;97560;;;;
2021/12/01 04:41:39;;;;;;;3.2;6;;;;;;;3.1;72.2;97570;;;;
2021/12/01 04:51:37;;;;;;;3.9;7.8;;;;;;;3;72.3;97560;;;;
2021/12/01 05:02:37;;;;;;;3.9;7.8;;;;;;;3;72.3;97590;;;;
2021/12/01 05:12:37;;;;;;;3.9;7.8;;;;;;;2.9;72;97590;;;;
2021/12/01 05:22:37;;;;;;;3.5;7.5;;;;;;;3;72;97600;;;;
2021/12/01 05:32:37;;;;;;;3.5;7.5;;;;;;;2.8;72.7;97600;;;;
2021/12/01 05:43:37;;;;;;;3.5;7.5;;;;;;;2.9;73;97600;;;;
2021/12/01 05:53:37;;;;;;;5.3;10.4;;;;;;;2.8;73.2;97600;;;;
2021/12/01 06:04:37;;;;;;;5.3;10.4;;;;;;;2.6;73.7;97590;;;;
2021/12/01 06:14:38;;;;;;;5.3;10.4;;;;;;;2.7;73.8;97600;;;;
2021/12/01 06:25:37;;;;;;;4.9;8.6;;;;;;;2.7;73.8;97620;;;;
2021/12/01 06:36:37;;;;;;;4.9;8.6;;;;;;;2.7;73.7;97610;;;;
2021/12/01 06:47:37;;;;;;;4.9;8.6;;;;;;;2.8;73.2;97620;;;;
2021/12/01 06:58:37;;;;;;;5.9;8.3;;;;;;;3;72.2;97630;;;;
2021/12/01 07:09:37;;;;;;;5.9;8.3;;;;;;;3.1;71.3;97620;;;;
2021/12/01 07:20:37;;;;;;;5.9;8.3;;;;;;;3.2;71.2;97620;;;;
2021/12/01 07:31:37;;;;;;;7.4;12.1;;;;;;;3.2;71.1;97610;;;;
2021/12/01 07:42:37;;;;;;;7.4;12.1;;;;;;;3.4;70.7;97590;;;;
2021/12/01 07:53:37;;;;;;;6.3;10.2;;;;;;;3.6;70.6;97560;;;;
2021/12/01 08:03:37;;;;;;;6.3;10.2;;;;;;;3.9;68.6;97550;;;;
2021/12/01 08:14:37;;;;;;;6.3;10.2;;;;;;;4;68.1;97540;;;;
2021/12/01 08:24:37;;;;;;;6.4;12.2;;;;;;;4.3;67.2;97520;;;;
2021/12/01 08:34:37;;;;;;;6.4;12.2;;;;;;;4;65.8;97520;;;;
2021/12/01 08:44:37;;;;;;;6.4;12.2;;;;;;;4.1;66.1;97530;;;;
2021/12/01 08:54:38;;;;;;;5;9.2;;;;;;;4.2;65.5;97530;;;;
2021/12/01 09:05:38;;;;;;;5;9.2;;;;;;;4.5;65.4;97510;;;;
2021/12/01 09:15:38;;;;;;;5;9.2;;;;;;;4.5;65.5;97490;;;;
2021/12/01 09:26:38;;;;;;;4.8;11;;;;;;;4.6;65.2;97480;;;;
2021/12/01 09:36:38;;;;;;;4.8;11;;;;;;;4.9;64.7;97480;;;;
2021/12/01 09:47:37;;;;;;;4.8;11;;;;;;;5;63.5;97440;;;;
2021/12/01 09:57:37;;;;;;;3.3;8.2;;;;;;;5.2;62.5;97430;;;;
2021/12/01 10:07:38;;;;;;;3.3;8.2;;;;;;;5.6;62.1;97410;;;;
2021/12/01 10:18:38;;;;;;;3.3;8.2;;;;;;;5.8;59.4;97410;;;;
2021/12/01 10:29:38;;;;;;;3.5;6.9;;;;;;;6;58.2;97400;;;;
2021/12/01 10:39:38;;;;;;;3.5;6.9;;;;;;;6.2;58;97380;;;;
2021/12/01 10:50:38;;;;;;;3.8;6.9;;;;;;;6.3;57.7;97370;;;;
2021/12/01 11:01:38;;;;;;;3.8;6.9;;;;;;;6.6;59.1;97340;;;;
2021/12/01 11:12:38;;;;;;;3.8;6.9;;;;;;;6.8;59.7;97320;;;;
2021/12/01 11:22:38;;;;;;;2.7;5.4;;;;;;;7.1;60.8;97310;;;;
2021/12/01 11:33:43;;;;;;;2.7;5.4;;;;;;;6.7;61.3;97300;;;;
2021/12/01 11:44:38;;;;;;;2.7;5.4;;;;;;;6.6;62.5;97280;;;;
2021/12/01 11:54:38;;;;;;;3;6.2;;;;;;;6.6;63;97270;;;;
2021/12/01 12:04:38;;;;;;;3;6.2;;;;;;;6.4;64.1;97240;;;;
2021/12/01 12:14:38;;;;;;;3;6.2;;;;;;;6.7;64.9;97210;;;;
2021/12/01 12:24:38;;;;;;;2.8;5.4;;;;;;;7;63.7;97190;;;;
2021/12/01 12:34:38;;;;;;;2.8;5.4;;;;;;;6.6;64.4;97180;;;;
2021/12/01 12:44:38;;;;;;;2.8;5.4;;;;;;;6.6;64.9;97170;;;;
2021/12/01 12:55:38;;;;;;;3.8;7.2;;;;;;;6.4;66.4;97140;;;;
2021/12/01 13:06:38;;;;;;;3.8;7.2;;;;;;;6.5;67.1;97120;;;;
2021/12/01 13:16:38;;;;;;;3.8;7.2;;;;;;;6.6;67.5;97120;;;;
2021/12/01 13:27:38;;;;;;;3.8;7.2;;;;;;;6.5;68.6;97110;;;;
2021/12/01 13:37:38;;;;;;;3.8;7.2;;;;;;;6.6;69.9;97090;;;;
2021/12/01 13:48:38;;;;;;;3.8;7.2;;;;;;;6.6;70.8;97070;;;;
2021/12/01 13:59:38;;;;;;;8.5;10.6;;;;;;;6.4;72;97050;;;;
2021/12/01 14:10:38;;;;;;;8.5;10.6;;;;;;;6.4;72.2;97030;;;;
2021/12/01 14:20:38;;;;;;;8.9;11;;;;;;;6.2;73.7;97010;;;;
2021/12/01 14:30:38;;;;;;;8.9;11;;;;;;;6.2;74.2;96990;;;;
2021/12/01 14:41:38;;;;;;;8.9;11;;;;;;;6;75.7;96960;;;;
2021/12/01 14:52:38;;;;;;;4.9;7.9;;;;;;;5.9;76;96940;;;;
2021/12/01 15:02:38;;;;;;;4.9;7.9;;;;;;;5.8;76.2;96940;;;;
2021/12/01 15:12:38;;;;;;;4.9;7.9;;;;;;;5.8;76.6;96930;;;;
2021/12/01 15:22:38;;;;;;;10.8;14.5;;;;;;;5.7;77.4;96930;;;;
2021/12/01 15:33:39;;;;;;;10.8;14.5;;;;;;;5.8;76.3;96940;;;;
2021/12/01 15:43:38;;;;;;;10.8;14.5;;;;;;;6.2;75.3;96940;;;;
2021/12/01 15:53:38;;;;;;;8.3;11.1;;;;;;;6.5;73.8;96940;;;;
2021/12/01 16:03:38;;;;;;;8.3;11.1;;;;;;;6.4;72.8;96930;;;;
2021/12/01 16:14:38;;;;;;;8.3;11.1;;;;;;;6.3;72.8;96910;;;;
2021/12/01 16:25:38;;;;;;;13.4;20.4;;;;;;;6.1;72.6;96900;;;;
2021/12/01 16:36:38;;;;;;;13.4;20.4;;;;;;;5.8;73;96880;;;;
2021/12/01 16:46:38;;;;;;;13.4;20.4;;;;;;;5.8;73.6;96840;;;;
2021/12/01 16:57:38;;;;;;;10.3;13.9;;;;;;;6.2;73;96840;;;;
2021/12/01 17:08:40;;;;;;;10.3;13.9;;;;;;;6.4;72;96810;;;;
2021/12/01 17:18:40;;;;;;;10.3;13.9;;;;;;;6.8;70.9;96780;;;;
2021/12/01 17:28:39;;;;;;;12.4;16.4;;;;;;;7;70.1;96760;;;;
2021/12/01 17:38:38;;;;;;;12.4;16.4;;;;;;;7.2;69.8;96750;;;;
2021/12/01 17:48:42;;;;;;;12.4;16.4;;;;;;;7.2;69.5;96750;;;;
2021/12/01 17:58:38;;;;;;;8.3;12.7;;;;;;;7.1;69.4;96750;;;;
2021/12/01 18:09:38;;;;;;;8.3;12.7;;;;;;;7.2;68.8;96740;;;;
2021/12/01 18:20:38;;;;;;;7.2;10.5;;;;;;;7.5;67.1;96720;;;;
2021/12/01 18:30:38;;;;;;;7.2;10.5;;;;;;;7.8;66.2;96710;;;;
2021/12/01 18:41:38;;;;;;;7.2;10.5;;;;;;;8.1;65;96700;;;;
2021/12/01 18:51:38;;;;;;;6.5;9.1;;;;;;;7.9;65.4;96710;;;;
2021/12/01 19:02:39;;;;;;;6.5;9.1;;;;;;;7.6;65.8;96680;;;;
2021/12/01 19:13:38;;;;;;;6.5;9.1;;;;;;;7.7;65.5;96670;;;;
2021/12/01 19:24:38;;;;;;;5.7;7.9;;;;;;;7.6;66.1;96660;;;;
2021/12/01 19:34:38;;;;;;;5.7;7.9;;;;;;;7.6;65.9;96660;;;;
2021/12/01 19:44:38;;;;;;;5.7;7.9;;;;;;;7.6;66.2;96650;;;;
2021/12/01 19:54:38;;;;;;;9.9;13.2;;;;;;;7.6;66;96630;;;;
2021/12/01 20:05:38;;;;;;;9.9;13.2;;;;;;;7.8;65.3;96620;;;;
2021/12/01 20:15:38;;;;;;;9.9;13.2;;;;;;;8;64.1;96620;;;;
2021/12/01 20:25:38;;;;;;;6;8.7;;;;;;;8.3;63.2;96620;;;;
2021/12/01 20:36:38;;;;;;;6;8.7;;;;;;;8.4;62.8;96620;;;;
2021/12/01 20:46:43;;;;;;;6;8.7;;;;;;;8.5;62.5;96610;;;;
2021/12/01 20:57:43;;;;;;;4.9;7.5;;;;;;;8.6;62.2;96620;;;;
2021/12/01 21:07:42;;;;;;;4.9;7.5;;;;;;;8.8;61.8;96600;;;;
2021/12/01 21:18:38;;;;;;;4.9;7.5;;;;;;;8.9;61.8;96600;;;;
2021/12/01 21:28:38;;;;;;;4.1;6.8;;;;;;;9;61.9;96600;;;;
2021/12/01 21:39:38;;;;;;;4.1;6.8;;;;;;;9.3;61;96590;;;;
2021/12/01 21:50:38;;;;;;;2.7;5.1;;;;;;;9.3;60.9;96610;;;;
2021/12/01 22:00:38;;;;;;;2.7;5.1;;;;;;;9.3;60.6;96610;;;;
2021/12/01 22:10:38;;;;;;;2.7;5.1;;;;;;;9.1;61.3;96610;;;;
2021/12/01 22:20:38;;;;;;;2.6;5.5;;;;;;;8.9;62;96600;;;;
2021/12/01 22:31:38;;;;;;;2.6;5.5;;;;;;;9;62;96580;;;;
2021/12/01 22:41:38;;;;;;;2.6;5.5;;;;;;;9;62.1;96570;;;;
2021/12/01 22:52:38;;;;;;;2.1;4.1;;;;;;;8.8;62.8;96580;;;;
2021/12/01 23:02:38;;;;;;;2.1;4.1;;;;;;;9;62.7;96590;;;;
2021/12/01 23:12:38;;;;;;;2.1;4.1;;;;;;;8.9;63.1;96580;;;;
2021/12/01 23:22:40;;;;;;;1.7;3.4;;;;;;;8.8;63.4;96580;;;;
2021/12/01 23:32:38;;;;;;;1.7;3.4;;;;;;;8.7;63.9;96580;;;;
2021/12/01 23:42:38;;;;;;;1.7;3.4;;;;;;;8.6;64.5;96590;;;;
2021/12/01 23:52:38;;;;;;;1.9;3.9;;;;;;;8.6;64.8;96600;;;;
